Terminal Aerodrome Forecast
Issued by NWS Cleveland, OH

Home | Current Version | Previous Version | Graphics & Text | Print | Product List | Glossary On
Versions: 1 2 3 4 5 6 7 8 9 10 11 12 13 14 15
000
FTUS41 KCLE 241100
TAFMFD
TAF
KMFD 241130Z 2412/2512 09004KT 1/2SM FG VV002
      TEMPO 2412/2414 2SM BR BKN006
     FM241400 09005KT 5SM BR BKN007
     FM241500 08007KT P6SM BKN015
     FM241800 06006KT P6SM SCT030 BKN250
     FM250100 09005KT P6SM FEW120
     FM250800 14003KT 2SM BR SCT003=

USA.gov is the U.S. government's official web portal to all federal, state and local government web resources and services.